Greenfield, IN

4:33 AM EST on February 06, 2016 (GMT -0500)
Lake Liberty | | Change Station
CLOSE
Current Station
Personal Weather Station
Location: Greenfield, IN
Elevation: 886 ft
Nearby Weather Stations

Elev 886 ft 39.79 °N, 85.80 °W | Updated 8 seconds ago

Mostly Cloudy
Mostly Cloudy
21.8 °F
Feels Like 22 °F
N
0.0
Wind Variable Wind from North
Gusts 0.0 mph

Today
High -- | Low -- °F
--% Chance of Precip.
Yesterday
High -- | Low -- °F
Precip. -- in
Pressure 30.33 in
Visibility 4.0 miles
Clouds Clear
Windchill 22 °F
Dew Point 19 °F
Humidity 90%
Rainfall 0.00 in
Snow Depth Not available.
7:46 AM 6:08 PM
Waning Crescent, 6% visible
METAR KMQJ 060915Z AUTO 00000KT 4SM CLR M06/M06 A3033 RMK AO1
Pressure 30.33 in
Visibility 4.0 miles
Clouds Clear
Windchill 22 °F
Dew Point 19 °F
Humidity 90%
Rainfall 0.00 in
Snow Depth Not available.
7:46 AM 6:08 PM
Waning Crescent, 6% visible
METAR KMQJ 060915Z AUTO 00000KT 4SM CLR M06/M06 A3033 RMK AO1

10-Day Weather Forecast

Almanac

Astronomy

Feb. 06, 2016 Rise Set
Actual Time
Civil Twilight
Nautical Twilight
Astronomical Twilight
Moon
Length of Visible Light
Length of Day
Tomorrow will be .
, % of the Moon is Illuminated

Today's Extremes

State Highs State Lows

Community

WunderPhotos

Upload Photos

1,890,933 photos uploaded!

WunderBlog® & News

Nearby

Air Quality

  Air Quality AQ Index Pollutant
Not available.

Snow Depth

Station Depth Elevation

Earthquake Activity

City Distance Mag. Time & Date
Minimum magnitude displayed is 2.5.

Coastal Water Temperatures

Place Temperature

Stations

Nearby Weather Stations

Station Location Temp. Windchill Dew Point Humidity Wind Precip. Elev Updated Type
                   

Watches & Warnings

There are currently no watches in effect.